createdAt,value
2022-11-29T00:00:47.149Z,5.82
2022-11-29T00:05:38.821Z,9.48
2022-11-29T00:10:30.535Z,8.70
2022-11-29T00:15:22.335Z,4.30
2022-11-29T00:20:14.044Z,5.05
2022-11-29T00:25:06.945Z,3.97
2022-11-29T00:29:58.958Z,3.03
2022-11-29T00:34:50.698Z,2.13
2022-11-29T00:39:42.444Z,2.03
2022-11-29T00:44:34.067Z,2.22
2022-11-29T00:49:25.808Z,2.13
2022-11-29T00:54:17.644Z,2.50
2022-11-29T00:59:09.351Z,1.75
2022-11-29T01:04:02.233Z,2.88
2022-11-29T01:08:54.057Z,3.22
2022-11-29T01:13:45.899Z,3.75
2022-11-29T01:18:37.993Z,3.30
2022-11-29T01:23:30.101Z,2.20
2022-11-29T01:28:22.299Z,3.20
2022-11-29T01:33:14.016Z,3.42
2022-11-29T01:38:05.609Z,4.20
2022-11-29T01:42:57.269Z,5.57
2022-11-29T01:47:52.505Z,6.20
2022-11-29T01:52:44.813Z,5.93
2022-11-29T01:57:40.084Z,4.40
2022-11-29T02:02:35.998Z,5.10
2022-11-29T02:07:28.108Z,4.65
2022-11-29T02:12:32.107Z,5.63
2022-11-29T02:17:36.029Z,5.18
2022-11-29T02:22:40.349Z,4.47
2022-11-29T02:28:17.216Z,4.82
2022-11-29T02:33:26.188Z,4.55
2022-11-29T02:38:29.655Z,4.35
2022-11-29T02:43:55.304Z,3.97
2022-11-29T02:49:11.759Z,3.80
2022-11-29T02:54:24.679Z,3.83
2022-11-29T02:59:21.116Z,3.50
2022-11-29T03:04:31.358Z,2.60
2022-11-29T03:09:23.039Z,2.17
2022-11-29T03:14:27.069Z,2.42
2022-11-29T03:19:36.752Z,1.92
2022-11-29T03:24:35.986Z,2.67
2022-11-29T03:29:36.372Z,1.10
2022-11-29T03:34:43.332Z,1.23
2022-11-29T03:39:56.920Z,1.05
2022-11-29T03:45:07.622Z,0.98
2022-11-29T03:50:14.740Z,0.60
2022-11-29T03:55:09.336Z,0.70
2022-11-29T04:00:21.540Z,0.70
2022-11-29T04:05:53.381Z,0.90
2022-11-29T04:11:09.227Z,1.67
2022-11-29T04:16:19.170Z,1.83
2022-11-29T04:21:23.060Z,1.38
2022-11-29T04:26:35.107Z,1.30
2022-11-29T04:31:32.985Z,1.52
2022-11-29T04:36:46.274Z,1.15
2022-11-29T04:41:40.616Z,1.48
2022-11-29T04:47:03.592Z,1.60
2022-11-29T04:52:14.972Z,1.17
2022-11-29T04:57:24.042Z,1.42
2022-11-29T05:02:41.375Z,2.10
2022-11-29T05:07:38.871Z,2.05
2022-11-29T05:12:43.153Z,2.30
2022-11-29T05:18:00.002Z,2.42
2022-11-29T05:23:25.495Z,2.58
2022-11-29T05:28:30.459Z,1.83
2022-11-29T05:33:49.050Z,2.90
2022-11-29T05:39:19.530Z,2.53
2022-11-29T05:44:13.859Z,1.90
2022-11-29T05:49:39.430Z,2.38
2022-11-29T05:55:10.603Z,2.10
2022-11-29T06:00:05.372Z,1.83
2022-11-29T06:05:18.550Z,2.53
2022-11-29T06:10:17.871Z,2.80
2022-11-29T06:15:24.528Z,2.17
2022-11-29T06:20:19.261Z,2.80
2022-11-29T06:25:28.683Z,2.05
2022-11-29T06:30:26.367Z,2.40
2022-11-29T06:35:41.009Z,2.15
2022-11-29T06:40:33.150Z,1.90
2022-11-29T06:45:25.205Z,2.45
2022-11-29T06:50:19.863Z,1.92
2022-11-29T06:55:24.356Z,2.10
2022-11-29T07:00:27.082Z,2.65
2022-11-29T07:05:27.731Z,2.83
2022-11-29T07:10:20.030Z,3.10
2022-11-29T07:15:22.235Z,2.25
2022-11-29T07:20:34.920Z,4.20
2022-11-29T07:25:57.729Z,4.93
2022-11-29T07:31:07.606Z,3.95
2022-11-29T07:36:09.501Z,5.55
2022-11-29T07:41:05.274Z,6.15
2022-11-29T07:45:57.517Z,5.57
2022-11-29T07:50:49.563Z,5.45
2022-11-29T07:55:41.550Z,6.32
2022-11-29T08:00:33.308Z,6.20
2022-11-29T08:05:25.162Z,4.55
2022-11-29T08:10:17.897Z,3.28
2022-11-29T08:15:09.797Z,3.25
2022-11-29T08:20:04.319Z,3.55
2022-11-29T08:24:56.257Z,5.40
2022-11-29T08:29:47.950Z,5.15
2022-11-29T08:34:39.780Z,6.75
2022-11-29T08:39:31.497Z,6.60
2022-11-29T08:44:23.771Z,5.32
2022-11-29T08:49:15.388Z,4.18
2022-11-29T08:54:07.326Z,3.60
2022-11-29T08:58:59.226Z,3.47
2022-11-29T09:04:00.128Z,2.95
2022-11-29T09:08:51.890Z,3.13
2022-11-29T09:13:47.113Z,3.83
2022-11-29T09:18:40.021Z,3.30
2022-11-29T09:23:31.681Z,3.83
2022-11-29T09:28:23.523Z,3.70
2022-11-29T09:33:15.320Z,6.13
2022-11-29T09:38:07.039Z,9.90
2022-11-29T09:43:14.217Z,9.20
2022-11-29T09:48:17.908Z,9.57
2022-11-29T09:53:26.157Z,11.32
2022-11-29T09:58:21.525Z,10.63
2022-11-29T10:03:44.634Z,5.00
2022-11-29T10:08:47.344Z,4.13
2022-11-29T10:13:45.804Z,4.38
2022-11-29T10:18:44.580Z,5.07
2022-11-29T10:23:42.897Z,4.60
2022-11-29T10:28:36.674Z,6.32
2022-11-29T10:33:35.223Z,12.43
2022-11-29T10:38:31.460Z,15.30
2022-11-29T10:43:26.081Z,8.35
2022-11-29T10:48:21.430Z,4.28
2022-11-29T10:53:17.228Z,3.25
2022-11-29T10:58:13.411Z,2.90
2022-11-29T11:03:26.224Z,2.67
2022-11-29T11:08:18.358Z,2.55
2022-11-29T11:13:23.323Z,2.90
2022-11-29T11:18:25.681Z,2.95
2022-11-29T11:23:26.625Z,2.72
2022-11-29T11:28:25.401Z,3.28
2022-11-29T11:33:24.176Z,2.92
2022-11-29T11:38:17.636Z,3.65
2022-11-29T11:43:21.653Z,3.58
2022-11-29T11:48:19.132Z,2.58
2022-11-29T11:53:31.446Z,2.83
2022-11-29T11:58:25.935Z,4.65
2022-11-29T12:03:42.516Z,3.97
2022-11-29T12:08:36.822Z,5.40
2022-11-29T12:13:33.479Z,5.90
2022-11-29T12:18:40.919Z,5.65
2022-11-29T12:24:06.751Z,6.28
2022-11-29T12:29:00.408Z,5.45
2022-11-29T12:34:32.669Z,7.07
2022-11-29T12:39:30.572Z,6.40
2022-11-29T12:44:51.671Z,6.68
2022-11-29T12:50:05.247Z,7.72
2022-11-29T12:55:12.103Z,8.48
2022-11-29T13:00:14.736Z,8.75
2022-11-29T13:05:19.098Z,9.93
2022-11-29T13:10:21.178Z,11.35
2022-11-29T13:15:21.557Z,9.93
2022-11-29T13:20:19.046Z,8.07
2022-11-29T13:25:35.949Z,8.43
2022-11-29T13:30:27.737Z,7.70
2022-11-29T13:35:38.180Z,8.98
2022-11-29T13:40:48.991Z,7.45
2022-11-29T13:45:49.835Z,6.75
2022-11-29T13:50:45.103Z,7.45
2022-11-29T13:55:45.343Z,7.05
2022-11-29T14:00:43.917Z,7.13
2022-11-29T14:05:42.798Z,7.95
2022-11-29T14:10:34.713Z,7.38
2022-11-29T14:15:29.421Z,8.32
2022-11-29T14:20:25.211Z,8.88
2022-11-29T14:25:50.644Z,7.45
2022-11-29T14:30:43.009Z,9.15
2022-11-29T14:35:55.581Z,7.97
2022-11-29T14:41:06.132Z,9.32
2022-11-29T14:46:08.986Z,7.70
2022-11-29T14:51:13.898Z,8.35
2022-11-29T14:56:35.109Z,9.88
2022-11-29T15:01:26.970Z,8.70
2022-11-29T15:06:27.069Z,8.27
2022-11-29T15:11:59.493Z,7.45
2022-11-29T15:17:02.995Z,9.98
2022-11-29T15:22:18.366Z,9.45
2022-11-29T15:27:13.189Z,10.68
2022-11-29T15:32:06.491Z,11.57
2022-11-29T15:36:59.609Z,12.55
2022-11-29T15:41:51.248Z,10.80
2022-11-29T15:46:43.060Z,11.50
2022-11-29T15:51:38.422Z,11.38
2022-11-29T15:56:49.359Z,9.45
2022-11-29T16:01:45.046Z,10.18
2022-11-29T16:06:42.648Z,10.13
2022-11-29T16:11:37.279Z,10.85
2022-11-29T16:16:32.719Z,9.75
2022-11-29T16:21:32.118Z,13.50
2022-11-29T16:26:26.512Z,11.93
2022-11-29T16:31:23.811Z,13.73
2022-11-29T16:36:20.720Z,13.00
2022-11-29T16:41:32.527Z,13.27
2022-11-29T16:46:26.125Z,11.85
2022-11-29T16:51:25.572Z,16.23
2022-11-29T16:56:20.489Z,10.85
2022-11-29T17:01:19.715Z,9.25
2022-11-29T17:06:23.996Z,8.05
2022-11-29T17:11:15.727Z,8.73
2022-11-29T17:16:12.917Z,11.15
2022-11-29T17:21:04.935Z,10.40
2022-11-29T17:26:01.132Z,10.05
2022-11-29T17:30:53.418Z,10.10
2022-11-29T17:35:45.347Z,14.40
2022-11-29T17:40:38.556Z,12.35
2022-11-29T17:45:30.453Z,13.50
2022-11-29T17:50:22.275Z,12.93
2022-11-29T17:55:16.140Z,14.60
2022-11-29T18:00:13.412Z,17.00
2022-11-29T18:05:05.566Z,11.07
2022-11-29T18:09:57.248Z,10.00
2022-11-29T18:14:50.824Z,10.60
2022-11-29T18:19:42.592Z,10.63
2022-11-29T18:24:34.495Z,14.45
2022-11-29T18:29:26.123Z,10.32
2022-11-29T18:34:17.831Z,11.85
2022-11-29T18:39:15.495Z,9.45
2022-11-29T18:44:10.024Z,11.90
2022-11-29T18:49:03.595Z,13.73
2022-11-29T18:53:56.203Z,16.60
2022-11-29T18:58:58.457Z,17.63
2022-11-29T19:03:52.828Z,12.20
2022-11-29T19:08:45.148Z,11.50
2022-11-29T19:13:37.324Z,11.02
2022-11-29T19:18:29.251Z,17.42
2022-11-29T19:23:21.416Z,12.68
2022-11-29T19:28:14.451Z,13.90
2022-11-29T19:33:06.343Z,13.05
2022-11-29T19:37:58.032Z,13.88
2022-11-29T19:42:50.208Z,12.73
2022-11-29T19:47:41.856Z,11.13
2022-11-29T19:52:33.532Z,13.60
2022-11-29T19:57:25.319Z,11.45
2022-11-29T20:02:17.244Z,13.25
2022-11-29T20:07:09.016Z,10.38
2022-11-29T20:12:00.718Z,17.80
2022-11-29T20:16:52.419Z,12.13
2022-11-29T20:21:49.057Z,16.45
2022-11-29T20:26:44.031Z,12.60
2022-11-29T20:31:37.309Z,19.80
2022-11-29T20:36:35.068Z,14.48
2022-11-29T20:41:45.782Z,13.18
2022-11-29T20:46:37.563Z,13.10
2022-11-29T20:51:40.089Z,12.40
2022-11-29T20:56:31.824Z,11.52
2022-11-29T21:01:23.941Z,13.10
2022-11-29T21:06:15.758Z,13.45
2022-11-29T21:11:10.396Z,11.43
2022-11-29T21:16:02.938Z,13.23
2022-11-29T21:21:19.288Z,12.35
2022-11-29T21:26:16.665Z,11.30
2022-11-29T21:31:13.076Z,12.97
2022-11-29T21:36:06.212Z,14.80
2022-11-29T21:40:58.056Z,14.82
2022-11-29T21:45:49.662Z,16.33
2022-11-29T21:50:41.694Z,17.38
2022-11-29T21:55:33.475Z,14.18
2022-11-29T22:00:25.269Z,16.45
2022-11-29T22:05:16.884Z,17.55
2022-11-29T22:10:13.308Z,16.80
2022-11-29T22:15:06.036Z,15.25
2022-11-29T22:19:57.697Z,16.73
2022-11-29T22:24:49.727Z,15.30
2022-11-29T22:29:41.607Z,15.10
2022-11-29T22:34:33.388Z,13.35
2022-11-29T22:39:25.855Z,15.05
2022-11-29T22:44:17.524Z,16.17
2022-11-29T22:49:09.383Z,17.27
2022-11-29T22:54:04.253Z,15.20
2022-11-29T22:58:56.075Z,14.43
2022-11-29T23:03:56.710Z,13.27
2022-11-29T23:08:49.559Z,15.18
2022-11-29T23:13:43.092Z,15.00
2022-11-29T23:18:36.211Z,14.63
2022-11-29T23:23:28.244Z,15.75
2022-11-29T23:28:19.902Z,12.88
2022-11-29T23:33:11.699Z,13.93
2022-11-29T23:38:03.446Z,12.27
2022-11-29T23:42:55.262Z,13.65
2022-11-29T23:47:46.988Z,13.25
2022-11-29T23:52:38.584Z,13.35
2022-11-29T23:57:31.315Z,13.88
